sensor_id;sensor_type;location;lat;lon;timestamp;P1;durP1;ratioP1;P2;durP2;ratioP2
64075;SDS011;50327;51.328;12.324;2023-07-13T00:00:37;5.82;;;1.63;;
64075;SDS011;50327;51.328;12.324;2023-07-13T00:03:03;9.10;;;3.40;;
64075;SDS011;50327;51.328;12.324;2023-07-13T00:05:29;11.77;;;4.43;;
64075;SDS011;50327;51.328;12.324;2023-07-13T00:07:55;10.38;;;3.10;;
64075;SDS011;50327;51.328;12.324;2023-07-13T00:10:20;8.20;;;2.35;;
64075;SDS011;50327;51.328;12.324;2023-07-13T00:12:47;8.77;;;1.60;;
64075;SDS011;50327;51.328;12.324;2023-07-13T00:15:14;4.07;;;1.45;;
64075;SDS011;50327;51.328;12.324;2023-07-13T00:17:47;6.28;;;1.50;;
64075;SDS011;50327;51.328;12.324;2023-07-13T00:20:14;8.82;;;1.70;;
64075;SDS011;50327;51.328;12.324;2023-07-13T00:22:39;4.00;;;1.30;;
64075;SDS011;50327;51.328;12.324;2023-07-13T00:25:04;5.03;;;1.50;;
64075;SDS011;50327;51.328;12.324;2023-07-13T00:27:30;4.63;;;1.40;;
64075;SDS011;50327;51.328;12.324;2023-07-13T00:29:57;4.55;;;1.40;;
64075;SDS011;50327;51.328;12.324;2023-07-13T00:32:25;3.60;;;1.40;;
64075;SDS011;50327;51.328;12.324;2023-07-13T00:34:50;3.65;;;1.45;;
64075;SDS011;50327;51.328;12.324;2023-07-13T00:37:17;3.35;;;1.40;;
64075;SDS011;50327;51.328;12.324;2023-07-13T00:39:42;7.80;;;2.00;;
64075;SDS011;50327;51.328;12.324;2023-07-13T00:42:07;9.98;;;1.60;;
64075;SDS011;50327;51.328;12.324;2023-07-13T00:44:33;5.47;;;1.48;;
64075;SDS011;50327;51.328;12.324;2023-07-13T00:46:58;4.25;;;1.25;;
64075;SDS011;50327;51.328;12.324;2023-07-13T00:49:25;5.72;;;1.55;;
64075;SDS011;50327;51.328;12.324;2023-07-13T00:51:56;2.30;;;1.10;;
64075;SDS011;50327;51.328;12.324;2023-07-13T00:54:24;6.43;;;1.40;;
64075;SDS011;50327;51.328;12.324;2023-07-13T00:56:55;3.78;;;1.35;;
64075;SDS011;50327;51.328;12.324;2023-07-13T00:59:23;5.28;;;1.50;;
64075;SDS011;50327;51.328;12.324;2023-07-13T01:01:49;4.18;;;1.33;;
64075;SDS011;50327;51.328;12.324;2023-07-13T01:04:15;5.65;;;1.25;;
64075;SDS011;50327;51.328;12.324;2023-07-13T01:06:41;15.48;;;1.70;;
64075;SDS011;50327;51.328;12.324;2023-07-13T01:09:09;10.85;;;1.75;;
64075;SDS011;50327;51.328;12.324;2023-07-13T01:11:35;4.07;;;1.25;;
64075;SDS011;50327;51.328;12.324;2023-07-13T01:14:01;7.50;;;1.35;;
64075;SDS011;50327;51.328;12.324;2023-07-13T01:16:29;3.80;;;0.98;;
64075;SDS011;50327;51.328;12.324;2023-07-13T01:18:59;6.38;;;1.20;;
64075;SDS011;50327;51.328;12.324;2023-07-13T01:21:29;8.88;;;1.23;;
64075;SDS011;50327;51.328;12.324;2023-07-13T01:26:22;5.13;;;1.25;;
64075;SDS011;50327;51.328;12.324;2023-07-13T01:28:48;7.55;;;1.35;;
64075;SDS011;50327;51.328;12.324;2023-07-13T01:31:13;9.18;;;1.20;;
64075;SDS011;50327;51.328;12.324;2023-07-13T01:33:39;7.05;;;1.30;;
64075;SDS011;50327;51.328;12.324;2023-07-13T01:36:09;6.88;;;1.25;;
64075;SDS011;50327;51.328;12.324;2023-07-13T01:38:35;10.32;;;1.33;;
64075;SDS011;50327;51.328;12.324;2023-07-13T01:41:01;7.05;;;1.88;;
64075;SDS011;50327;51.328;12.324;2023-07-13T01:43:27;5.07;;;1.27;;
64075;SDS011;50327;51.328;12.324;2023-07-13T01:45:53;6.40;;;1.50;;
64075;SDS011;50327;51.328;12.324;2023-07-13T01:48:19;9.07;;;1.63;;
64075;SDS011;50327;51.328;12.324;2023-07-13T01:50:45;4.85;;;1.25;;
64075;SDS011;50327;51.328;12.324;2023-07-13T01:53:10;5.57;;;1.58;;
64075;SDS011;50327;51.328;12.324;2023-07-13T01:55:36;5.45;;;1.65;;
64075;SDS011;50327;51.328;12.324;2023-07-13T01:58:02;5.18;;;1.30;;
64075;SDS011;50327;51.328;12.324;2023-07-13T02:00:28;11.23;;;2.53;;
64075;SDS011;50327;51.328;12.324;2023-07-13T02:02:53;2.75;;;1.10;;
64075;SDS011;50327;51.328;12.324;2023-07-13T02:05:19;6.78;;;1.85;;
64075;SDS011;50327;51.328;12.324;2023-07-13T02:07:45;3.65;;;1.30;;
64075;SDS011;50327;51.328;12.324;2023-07-13T02:10:11;5.53;;;1.48;;
64075;SDS011;50327;51.328;12.324;2023-07-13T02:12:37;10.35;;;1.55;;
64075;SDS011;50327;51.328;12.324;2023-07-13T02:15:02;5.70;;;1.50;;
64075;SDS011;50327;51.328;12.324;2023-07-13T02:17:29;5.38;;;1.30;;
64075;SDS011;50327;51.328;12.324;2023-07-13T02:19:54;4.05;;;1.33;;
64075;SDS011;50327;51.328;12.324;2023-07-13T02:22:20;6.25;;;1.30;;
64075;SDS011;50327;51.328;12.324;2023-07-13T02:24:46;4.47;;;1.40;;
64075;SDS011;50327;51.328;12.324;2023-07-13T02:27:11;3.08;;;1.50;;
64075;SDS011;50327;51.328;12.324;2023-07-13T02:29:36;6.68;;;2.05;;
64075;SDS011;50327;51.328;12.324;2023-07-13T02:32:02;5.55;;;1.17;;
64075;SDS011;50327;51.328;12.324;2023-07-13T02:34:28;6.32;;;1.40;;
64075;SDS011;50327;51.328;12.324;2023-07-13T02:36:53;10.48;;;1.50;;
64075;SDS011;50327;51.328;12.324;2023-07-13T02:39:18;5.35;;;1.38;;
64075;SDS011;50327;51.328;12.324;2023-07-13T02:41:44;5.53;;;1.20;;
64075;SDS011;50327;51.328;12.324;2023-07-13T02:44:09;5.38;;;1.42;;
64075;SDS011;50327;51.328;12.324;2023-07-13T02:46:37;6.13;;;2.00;;
64075;SDS011;50327;51.328;12.324;2023-07-13T02:49:03;5.60;;;1.85;;
64075;SDS011;50327;51.328;12.324;2023-07-13T02:51:29;4.72;;;1.40;;
64075;SDS011;50327;51.328;12.324;2023-07-13T02:53:55;4.40;;;1.33;;
64075;SDS011;50327;51.328;12.324;2023-07-13T02:56:24;6.60;;;1.58;;
64075;SDS011;50327;51.328;12.324;2023-07-13T02:58:50;5.10;;;1.80;;
64075;SDS011;50327;51.328;12.324;2023-07-13T03:01:16;5.65;;;1.42;;
64075;SDS011;50327;51.328;12.324;2023-07-13T03:03:43;9.00;;;1.35;;
64075;SDS011;50327;51.328;12.324;2023-07-13T03:06:08;6.32;;;1.83;;
64075;SDS011;50327;51.328;12.324;2023-07-13T03:08:34;4.15;;;1.40;;
64075;SDS011;50327;51.328;12.324;2023-07-13T03:11:10;5.60;;;1.40;;
64075;SDS011;50327;51.328;12.324;2023-07-13T03:13:38;9.05;;;1.80;;
64075;SDS011;50327;51.328;12.324;2023-07-13T03:16:04;8.20;;;1.67;;
64075;SDS011;50327;51.328;12.324;2023-07-13T03:18:31;3.05;;;1.45;;
64075;SDS011;50327;51.328;12.324;2023-07-13T03:20:56;7.53;;;1.67;;
64075;SDS011;50327;51.328;12.324;2023-07-13T03:23:22;10.63;;;1.77;;
64075;SDS011;50327;51.328;12.324;2023-07-13T03:25:47;6.03;;;1.30;;
64075;SDS011;50327;51.328;12.324;2023-07-13T03:28:13;4.85;;;1.40;;
64075;SDS011;50327;51.328;12.324;2023-07-13T03:30:39;4.22;;;1.33;;
64075;SDS011;50327;51.328;12.324;2023-07-13T03:33:05;8.95;;;1.85;;
64075;SDS011;50327;51.328;12.324;2023-07-13T03:35:31;14.20;;;2.15;;
64075;SDS011;50327;51.328;12.324;2023-07-13T03:37:57;6.60;;;1.60;;
64075;SDS011;50327;51.328;12.324;2023-07-13T03:40:24;5.25;;;1.48;;
64075;SDS011;50327;51.328;12.324;2023-07-13T03:42:50;4.10;;;1.63;;
64075;SDS011;50327;51.328;12.324;2023-07-13T03:45:15;4.53;;;1.80;;
64075;SDS011;50327;51.328;12.324;2023-07-13T03:47:40;6.90;;;1.80;;
64075;SDS011;50327;51.328;12.324;2023-07-13T03:50:06;9.05;;;2.03;;
64075;SDS011;50327;51.328;12.324;2023-07-13T03:52:32;8.02;;;2.25;;
64075;SDS011;50327;51.328;12.324;2023-07-13T03:54:57;8.82;;;2.33;;
64075;SDS011;50327;51.328;12.324;2023-07-13T03:57:23;6.82;;;2.33;;
64075;SDS011;50327;51.328;12.324;2023-07-13T03:59:48;7.40;;;1.98;;
64075;SDS011;50327;51.328;12.324;2023-07-13T04:02:13;9.02;;;2.17;;
64075;SDS011;50327;51.328;12.324;2023-07-13T04:04:39;8.35;;;2.03;;
64075;SDS011;50327;51.328;12.324;2023-07-13T04:07:05;7.32;;;1.90;;
64075;SDS011;50327;51.328;12.324;2023-07-13T04:09:33;10.52;;;2.42;;
64075;SDS011;50327;51.328;12.324;2023-07-13T04:11:58;4.03;;;1.60;;
64075;SDS011;50327;51.328;12.324;2023-07-13T04:14:24;4.93;;;1.85;;
64075;SDS011;50327;51.328;12.324;2023-07-13T04:16:49;4.20;;;1.70;;
64075;SDS011;50327;51.328;12.324;2023-07-13T04:19:14;6.57;;;2.00;;
64075;SDS011;50327;51.328;12.324;2023-07-13T04:21:40;6.90;;;2.05;;
64075;SDS011;50327;51.328;12.324;2023-07-13T04:24:05;9.50;;;2.15;;
64075;SDS011;50327;51.328;12.324;2023-07-13T04:26:31;11.77;;;2.00;;
64075;SDS011;50327;51.328;12.324;2023-07-13T04:28:57;9.90;;;2.67;;
64075;SDS011;50327;51.328;12.324;2023-07-13T04:31:22;6.82;;;2.17;;
64075;SDS011;50327;51.328;12.324;2023-07-13T04:33:48;11.57;;;2.03;;
64075;SDS011;50327;51.328;12.324;2023-07-13T04:36:14;6.43;;;1.85;;
64075;SDS011;50327;51.328;12.324;2023-07-13T04:38:40;7.18;;;2.05;;
64075;SDS011;50327;51.328;12.324;2023-07-13T04:41:07;7.28;;;2.20;;
64075;SDS011;50327;51.328;12.324;2023-07-13T04:43:33;7.88;;;1.98;;
64075;SDS011;50327;51.328;12.324;2023-07-13T04:46:03;6.88;;;2.10;;
64075;SDS011;50327;51.328;12.324;2023-07-13T04:48:32;10.15;;;2.20;;
64075;SDS011;50327;51.328;12.324;2023-07-13T04:50:58;7.40;;;2.70;;
64075;SDS011;50327;51.328;12.324;2023-07-13T04:53:24;10.52;;;2.08;;
64075;SDS011;50327;51.328;12.324;2023-07-13T04:55:50;10.55;;;2.08;;
64075;SDS011;50327;51.328;12.324;2023-07-13T04:58:16;10.10;;;2.20;;
64075;SDS011;50327;51.328;12.324;2023-07-13T05:00:42;7.30;;;2.20;;
64075;SDS011;50327;51.328;12.324;2023-07-13T05:03:07;5.97;;;2.15;;
64075;SDS011;50327;51.328;12.324;2023-07-13T05:05:33;8.82;;;1.90;;
64075;SDS011;50327;51.328;12.324;2023-07-13T05:07:59;6.32;;;2.38;;
64075;SDS011;50327;51.328;12.324;2023-07-13T05:10:24;9.88;;;2.13;;
64075;SDS011;50327;51.328;12.324;2023-07-13T05:12:50;8.23;;;1.60;;
64075;SDS011;50327;51.328;12.324;2023-07-13T05:15:15;8.90;;;2.17;;
64075;SDS011;50327;51.328;12.324;2023-07-13T05:17:45;5.30;;;1.98;;
64075;SDS011;50327;51.328;12.324;2023-07-13T05:20:11;8.40;;;2.10;;
64075;SDS011;50327;51.328;12.324;2023-07-13T05:22:36;8.32;;;2.00;;
64075;SDS011;50327;51.328;12.324;2023-07-13T05:25:04;9.98;;;2.38;;
64075;SDS011;50327;51.328;12.324;2023-07-13T05:27:31;10.63;;;2.20;;
64075;SDS011;50327;51.328;12.324;2023-07-13T05:29:56;10.77;;;2.00;;
64075;SDS011;50327;51.328;12.324;2023-07-13T05:32:22;6.97;;;2.00;;
64075;SDS011;50327;51.328;12.324;2023-07-13T05:34:47;13.23;;;2.15;;
64075;SDS011;50327;51.328;12.324;2023-07-13T05:37:13;9.65;;;1.45;;
64075;SDS011;50327;51.328;12.324;2023-07-13T05:39:38;7.10;;;1.65;;
64075;SDS011;50327;51.328;12.324;2023-07-13T05:42:03;5.75;;;1.83;;
64075;SDS011;50327;51.328;12.324;2023-07-13T05:44:29;55.38;;;5.03;;
64075;SDS011;50327;51.328;12.324;2023-07-13T05:46:55;11.35;;;1.95;;
64075;SDS011;50327;51.328;12.324;2023-07-13T05:49:21;5.38;;;1.80;;
64075;SDS011;50327;51.328;12.324;2023-07-13T05:51:48;13.05;;;3.00;;
64075;SDS011;50327;51.328;12.324;2023-07-13T05:54:14;14.27;;;2.15;;
64075;SDS011;50327;51.328;12.324;2023-07-13T05:56:39;7.22;;;3.28;;
64075;SDS011;50327;51.328;12.324;2023-07-13T05:59:04;13.20;;;2.20;;
64075;SDS011;50327;51.328;12.324;2023-07-13T06:01:30;6.18;;;1.95;;
64075;SDS011;50327;51.328;12.324;2023-07-13T06:03:56;4.75;;;1.80;;
64075;SDS011;50327;51.328;12.324;2023-07-13T06:06:21;13.95;;;2.10;;
64075;SDS011;50327;51.328;12.324;2023-07-13T06:08:46;11.18;;;1.90;;
64075;SDS011;50327;51.328;12.324;2023-07-13T06:11:19;5.10;;;1.60;;
64075;SDS011;50327;51.328;12.324;2023-07-13T06:13:49;6.10;;;1.98;;
64075;SDS011;50327;51.328;12.324;2023-07-13T06:16:15;6.82;;;2.00;;
64075;SDS011;50327;51.328;12.324;2023-07-13T06:18:41;6.05;;;1.65;;
64075;SDS011;50327;51.328;12.324;2023-07-13T06:21:08;14.30;;;2.00;;
64075;SDS011;50327;51.328;12.324;2023-07-13T06:23:37;13.68;;;1.88;;
64075;SDS011;50327;51.328;12.324;2023-07-13T06:26:03;9.88;;;2.13;;
64075;SDS011;50327;51.328;12.324;2023-07-13T06:28:29;9.23;;;2.55;;
64075;SDS011;50327;51.328;12.324;2023-07-13T06:30:56;9.35;;;2.30;;
64075;SDS011;50327;51.328;12.324;2023-07-13T06:33:22;10.10;;;2.05;;
64075;SDS011;50327;51.328;12.324;2023-07-13T06:35:47;18.25;;;2.28;;
64075;SDS011;50327;51.328;12.324;2023-07-13T06:38:13;11.63;;;1.95;;
64075;SDS011;50327;51.328;12.324;2023-07-13T06:40:38;13.15;;;1.65;;
64075;SDS011;50327;51.328;12.324;2023-07-13T06:43:03;11.00;;;2.15;;
64075;SDS011;50327;51.328;12.324;2023-07-13T06:45:29;7.32;;;1.83;;
64075;SDS011;50327;51.328;12.324;2023-07-13T06:47:54;7.47;;;1.70;;
64075;SDS011;50327;51.328;12.324;2023-07-13T06:50:20;9.18;;;1.98;;
64075;SDS011;50327;51.328;12.324;2023-07-13T06:52:45;8.07;;;1.67;;
64075;SDS011;50327;51.328;12.324;2023-07-13T06:55:10;6.32;;;1.98;;
64075;SDS011;50327;51.328;12.324;2023-07-13T06:57:36;6.82;;;1.50;;
64075;SDS011;50327;51.328;12.324;2023-07-13T07:00:01;6.85;;;1.85;;
64075;SDS011;50327;51.328;12.324;2023-07-13T07:02:26;5.93;;;1.55;;
64075;SDS011;50327;51.328;12.324;2023-07-13T07:04:52;6.63;;;1.83;;
64075;SDS011;50327;51.328;12.324;2023-07-13T07:07:19;6.60;;;1.33;;
64075;SDS011;50327;51.328;12.324;2023-07-13T07:09:44;7.43;;;1.85;;
64075;SDS011;50327;51.328;12.324;2023-07-13T07:12:10;5.85;;;1.70;;
64075;SDS011;50327;51.328;12.324;2023-07-13T07:14:35;6.22;;;1.60;;
64075;SDS011;50327;51.328;12.324;2023-07-13T07:17:00;8.57;;;1.48;;
64075;SDS011;50327;51.328;12.324;2023-07-13T07:19:27;7.88;;;1.20;;
64075;SDS011;50327;51.328;12.324;2023-07-13T07:21:54;6.30;;;1.30;;
64075;SDS011;50327;51.328;12.324;2023-07-13T07:24:19;5.90;;;1.52;;
64075;SDS011;50327;51.328;12.324;2023-07-13T07:26:45;7.00;;;1.33;;
64075;SDS011;50327;51.328;12.324;2023-07-13T07:29:10;6.05;;;1.70;;
64075;SDS011;50327;51.328;12.324;2023-07-13T07:31:35;5.43;;;1.50;;
64075;SDS011;50327;51.328;12.324;2023-07-13T07:34:02;4.00;;;1.30;;
64075;SDS011;50327;51.328;12.324;2023-07-13T07:36:27;9.82;;;1.42;;
64075;SDS011;50327;51.328;12.324;2023-07-13T07:38:53;2.90;;;1.48;;
64075;SDS011;50327;51.328;12.324;2023-07-13T07:41:18;6.30;;;1.25;;
64075;SDS011;50327;51.328;12.324;2023-07-13T07:43:44;8.90;;;1.35;;
64075;SDS011;50327;51.328;12.324;2023-07-13T07:46:09;10.60;;;2.00;;
64075;SDS011;50327;51.328;12.324;2023-07-13T07:48:34;4.75;;;1.20;;
64075;SDS011;50327;51.328;12.324;2023-07-13T07:51:00;7.50;;;1.10;;
64075;SDS011;50327;51.328;12.324;2023-07-13T07:53:25;11.80;;;1.20;;
64075;SDS011;50327;51.328;12.324;2023-07-13T07:55:51;4.97;;;1.30;;
64075;SDS011;50327;51.328;12.324;2023-07-13T07:58:16;8.43;;;1.45;;
64075;SDS011;50327;51.328;12.324;2023-07-13T08:00:42;4.25;;;1.52;;
64075;SDS011;50327;51.328;12.324;2023-07-13T08:03:07;7.43;;;1.27;;
64075;SDS011;50327;51.328;12.324;2023-07-13T08:05:34;7.20;;;1.67;;
64075;SDS011;50327;51.328;12.324;2023-07-13T08:08:01;4.50;;;1.33;;
64075;SDS011;50327;51.328;12.324;2023-07-13T08:10:26;4.18;;;1.30;;
64075;SDS011;50327;51.328;12.324;2023-07-13T08:12:52;3.95;;;1.10;;
64075;SDS011;50327;51.328;12.324;2023-07-13T08:15:17;4.00;;;1.20;;
64075;SDS011;50327;51.328;12.324;2023-07-13T08:17:45;7.65;;;1.38;;
64075;SDS011;50327;51.328;12.324;2023-07-13T08:22:38;4.00;;;1.40;;
64075;SDS011;50327;51.328;12.324;2023-07-13T08:25:04;5.82;;;1.63;;
64075;SDS011;50327;51.328;12.324;2023-07-13T08:27:31;4.85;;;1.48;;
64075;SDS011;50327;51.328;12.324;2023-07-13T08:29:56;5.85;;;1.23;;
64075;SDS011;50327;51.328;12.324;2023-07-13T08:32:22;9.43;;;1.40;;
64075;SDS011;50327;51.328;12.324;2023-07-13T08:34:48;5.20;;;1.75;;
64075;SDS011;50327;51.328;12.324;2023-07-13T08:37:15;12.95;;;1.80;;
64075;SDS011;50327;51.328;12.324;2023-07-13T08:39:40;4.78;;;1.10;;
64075;SDS011;50327;51.328;12.324;2023-07-13T08:47:31;9.07;;;1.70;;
64075;SDS011;50327;51.328;12.324;2023-07-13T08:50:02;12.90;;;1.70;;
64075;SDS011;50327;51.328;12.324;2023-07-13T08:52:41;8.55;;;1.50;;
64075;SDS011;50327;51.328;12.324;2023-07-13T08:55:21;10.35;;;1.38;;
64075;SDS011;50327;51.328;12.324;2023-07-13T08:58:33;6.22;;;1.20;;
64075;SDS011;50327;51.328;12.324;2023-07-13T09:00:49;5.20;;;1.40;;
64075;SDS011;50327;51.328;12.324;2023-07-13T09:03:23;4.95;;;1.25;;
64075;SDS011;50327;51.328;12.324;2023-07-13T09:05:57;4.65;;;1.20;;
64075;SDS011;50327;51.328;12.324;2023-07-13T09:08:36;9.35;;;1.35;;
64075;SDS011;50327;51.328;12.324;2023-07-13T09:17:13;5.45;;;1.77;;
64075;SDS011;50327;51.328;12.324;2023-07-13T09:19:43;6.22;;;1.55;;
64075;SDS011;50327;51.328;12.324;2023-07-13T09:22:12;7.97;;;1.35;;
64075;SDS011;50327;51.328;12.324;2023-07-13T09:27:37;4.35;;;1.30;;
64075;SDS011;50327;51.328;12.324;2023-07-13T09:32:43;7.07;;;1.50;;
64075;SDS011;50327;51.328;12.324;2023-07-13T09:35:18;7.97;;;1.33;;
64075;SDS011;50327;51.328;12.324;2023-07-13T09:37:45;9.68;;;1.20;;
64075;SDS011;50327;51.328;12.324;2023-07-13T09:40:14;6.53;;;1.60;;
64075;SDS011;50327;51.328;12.324;2023-07-13T09:42:48;5.35;;;1.45;;
64075;SDS011;50327;51.328;12.324;2023-07-13T09:45:14;5.55;;;1.20;;
64075;SDS011;50327;51.328;12.324;2023-07-13T09:47:53;4.53;;;1.35;;
64075;SDS011;50327;51.328;12.324;2023-07-13T09:50:37;9.48;;;1.70;;
64075;SDS011;50327;51.328;12.324;2023-07-13T09:53:03;10.40;;;1.42;;
64075;SDS011;50327;51.328;12.324;2023-07-13T10:00:58;6.05;;;1.20;;
64075;SDS011;50327;51.328;12.324;2023-07-13T10:03:28;3.50;;;1.27;;
64075;SDS011;50327;51.328;12.324;2023-07-13T10:06:03;5.43;;;1.30;;
64075;SDS011;50327;51.328;12.324;2023-07-13T10:08:40;10.63;;;1.60;;
64075;SDS011;50327;51.328;12.324;2023-07-13T10:11:10;6.93;;;1.50;;
64075;SDS011;50327;51.328;12.324;2023-07-13T10:13:44;4.43;;;1.10;;
64075;SDS011;50327;51.328;12.324;2023-07-13T10:16:14;3.45;;;1.15;;
64075;SDS011;50327;51.328;12.324;2023-07-13T10:18:49;8.65;;;2.15;;
64075;SDS011;50327;51.328;12.324;2023-07-13T10:21:17;4.45;;;1.20;;
64075;SDS011;50327;51.328;12.324;2023-07-13T10:23:47;7.07;;;1.50;;
64075;SDS011;50327;51.328;12.324;2023-07-13T10:26:18;4.05;;;1.38;;
64075;SDS011;50327;51.328;12.324;2023-07-13T10:28:50;8.75;;;1.65;;
64075;SDS011;50327;51.328;12.324;2023-07-13T10:31:18;10.15;;;2.45;;
64075;SDS011;50327;51.328;12.324;2023-07-13T10:33:44;7.78;;;1.80;;
64075;SDS011;50327;51.328;12.324;2023-07-13T10:36:15;4.25;;;1.67;;
64075;SDS011;50327;51.328;12.324;2023-07-13T10:38:45;4.30;;;1.20;;
64075;SDS011;50327;51.328;12.324;2023-07-13T10:41:18;4.63;;;1.20;;
64075;SDS011;50327;51.328;12.324;2023-07-13T10:43:53;5.50;;;1.50;;
64075;SDS011;50327;51.328;12.324;2023-07-13T10:46:21;4.35;;;1.45;;
64075;SDS011;50327;51.328;12.324;2023-07-13T10:48:50;3.40;;;1.08;;
64075;SDS011;50327;51.328;12.324;2023-07-13T10:51:19;2.88;;;0.90;;
64075;SDS011;50327;51.328;12.324;2023-07-13T10:53:46;5.18;;;1.40;;
64075;SDS011;50327;51.328;12.324;2023-07-13T10:58:43;5.10;;;1.45;;
64075;SDS011;50327;51.328;12.324;2023-07-13T11:01:11;8.45;;;1.20;;
64075;SDS011;50327;51.328;12.324;2023-07-13T11:13:59;2.33;;;0.90;;
64075;SDS011;50327;51.328;12.324;2023-07-13T11:21:27;2.10;;;1.05;;
64075;SDS011;50327;51.328;12.324;2023-07-13T11:24:02;2.17;;;0.93;;
64075;SDS011;50327;51.328;12.324;2023-07-13T11:26:41;2.10;;;0.93;;
64075;SDS011;50327;51.328;12.324;2023-07-13T11:31:40;4.90;;;1.02;;
64075;SDS011;50327;51.328;12.324;2023-07-13T11:34:12;3.47;;;1.13;;
64075;SDS011;50327;51.328;12.324;2023-07-13T11:36:42;2.83;;;1.08;;
64075;SDS011;50327;51.328;12.324;2023-07-13T11:39:26;5.03;;;1.40;;
64075;SDS011;50327;51.328;12.324;2023-07-13T11:41:57;1.55;;;0.68;;
64075;SDS011;50327;51.328;12.324;2023-07-13T11:44:26;4.75;;;0.82;;
64075;SDS011;50327;51.328;12.324;2023-07-13T11:46:53;4.57;;;1.08;;
64075;SDS011;50327;51.328;12.324;2023-07-13T11:49:20;4.30;;;0.70;;
64075;SDS011;50327;51.328;12.324;2023-07-13T11:51:47;2.10;;;0.93;;
64075;SDS011;50327;51.328;12.324;2023-07-13T11:56:54;3.13;;;0.80;;
64075;SDS011;50327;51.328;12.324;2023-07-13T11:59:23;3.75;;;1.08;;
64075;SDS011;50327;51.328;12.324;2023-07-13T12:01:50;3.78;;;1.02;;
64075;SDS011;50327;51.328;12.324;2023-07-13T12:04:20;1.80;;;0.98;;
64075;SDS011;50327;51.328;12.324;2023-07-13T12:07:03;5.20;;;0.77;;
64075;SDS011;50327;51.328;12.324;2023-07-13T12:09:32;3.17;;;0.90;;
64075;SDS011;50327;51.328;12.324;2023-07-13T12:11:58;4.55;;;0.80;;
64075;SDS011;50327;51.328;12.324;2023-07-13T12:14:25;4.20;;;0.82;;
64075;SDS011;50327;51.328;12.324;2023-07-13T12:16:51;2.72;;;0.88;;
64075;SDS011;50327;51.328;12.324;2023-07-13T12:19:36;4.93;;;1.02;;
64075;SDS011;50327;51.328;12.324;2023-07-13T12:22:01;3.05;;;1.33;;
64075;SDS011;50327;51.328;12.324;2023-07-13T12:24:27;1.70;;;0.70;;
64075;SDS011;50327;51.328;12.324;2023-07-13T12:26:54;1.65;;;0.88;;
64075;SDS011;50327;51.328;12.324;2023-07-13T12:29:29;2.70;;;0.95;;
64075;SDS011;50327;51.328;12.324;2023-07-13T12:31:56;4.32;;;0.90;;
64075;SDS011;50327;51.328;12.324;2023-07-13T12:34:22;4.80;;;0.90;;
64075;SDS011;50327;51.328;12.324;2023-07-13T12:37:00;6.55;;;1.55;;
64075;SDS011;50327;51.328;12.324;2023-07-13T12:41:52;3.53;;;0.90;;
64075;SDS011;50327;51.328;12.324;2023-07-13T12:44:21;4.30;;;0.80;;
64075;SDS011;50327;51.328;12.324;2023-07-13T12:49:31;3.88;;;1.90;;
64075;SDS011;50327;51.328;12.324;2023-07-13T12:52:03;3.58;;;0.90;;
64075;SDS011;50327;51.328;12.324;2023-07-13T12:54:39;6.93;;;0.98;;
64075;SDS011;50327;51.328;12.324;2023-07-13T12:57:05;2.75;;;0.70;;
64075;SDS011;50327;51.328;12.324;2023-07-13T12:59:34;4.45;;;0.70;;
64075;SDS011;50327;51.328;12.324;2023-07-13T13:02:01;2.05;;;1.10;;
64075;SDS011;50327;51.328;12.324;2023-07-13T13:04:27;5.50;;;1.33;;
64075;SDS011;50327;51.328;12.324;2023-07-13T13:07:00;6.72;;;0.88;;
64075;SDS011;50327;51.328;12.324;2023-07-13T13:09:27;3.63;;;0.82;;
64075;SDS011;50327;51.328;12.324;2023-07-13T13:11:53;5.35;;;1.23;;
64075;SDS011;50327;51.328;12.324;2023-07-13T13:14:18;7.10;;;1.00;;
64075;SDS011;50327;51.328;12.324;2023-07-13T13:16:48;5.40;;;1.38;;
64075;SDS011;50327;51.328;12.324;2023-07-13T13:21:45;2.90;;;1.00;;
64075;SDS011;50327;51.328;12.324;2023-07-13T13:24:16;2.80;;;0.77;;
64075;SDS011;50327;51.328;12.324;2023-07-13T13:26:43;2.08;;;0.70;;
64075;SDS011;50327;51.328;12.324;2023-07-13T13:29:11;3.60;;;0.90;;
64075;SDS011;50327;51.328;12.324;2023-07-13T13:31:38;1.02;;;0.68;;
64075;SDS011;50327;51.328;12.324;2023-07-13T13:34:04;1.48;;;0.80;;
64075;SDS011;50327;51.328;12.324;2023-07-13T13:36:33;3.35;;;0.80;;
64075;SDS011;50327;51.328;12.324;2023-07-13T13:38:58;1.63;;;0.80;;
64075;SDS011;50327;51.328;12.324;2023-07-13T13:41:26;2.63;;;0.90;;
64075;SDS011;50327;51.328;12.324;2023-07-13T13:43:51;3.65;;;1.17;;
64075;SDS011;50327;51.328;12.324;2023-07-13T13:46:24;3.53;;;1.00;;
64075;SDS011;50327;51.328;12.324;2023-07-13T13:48:54;1.58;;;0.70;;
64075;SDS011;50327;51.328;12.324;2023-07-13T13:51:22;3.28;;;0.60;;
64075;SDS011;50327;51.328;12.324;2023-07-13T13:53:49;4.90;;;0.90;;
64075;SDS011;50327;51.328;12.324;2023-07-13T13:56:15;6.82;;;1.10;;
64075;SDS011;50327;51.328;12.324;2023-07-13T13:58:43;3.72;;;0.82;;
64075;SDS011;50327;51.328;12.324;2023-07-13T14:01:12;3.72;;;0.85;;
64075;SDS011;50327;51.328;12.324;2023-07-13T14:03:41;5.15;;;0.80;;
64075;SDS011;50327;51.328;12.324;2023-07-13T14:06:08;2.95;;;0.90;;
64075;SDS011;50327;51.328;12.324;2023-07-13T14:08:38;9.65;;;1.20;;
64075;SDS011;50327;51.328;12.324;2023-07-13T14:11:04;3.10;;;0.88;;
64075;SDS011;50327;51.328;12.324;2023-07-13T14:13:38;5.00;;;1.05;;
64075;SDS011;50327;51.328;12.324;2023-07-13T14:16:12;4.20;;;1.08;;
64075;SDS011;50327;51.328;12.324;2023-07-13T14:18:42;1.58;;;1.05;;
64075;SDS011;50327;51.328;12.324;2023-07-13T14:21:16;5.18;;;1.13;;
64075;SDS011;50327;51.328;12.324;2023-07-13T14:23:43;8.52;;;1.15;;
64075;SDS011;50327;51.328;12.324;2023-07-13T14:26:11;7.40;;;1.10;;
64075;SDS011;50327;51.328;12.324;2023-07-13T14:28:42;3.10;;;0.98;;
64075;SDS011;50327;51.328;12.324;2023-07-13T14:31:11;2.92;;;0.82;;
64075;SDS011;50327;51.328;12.324;2023-07-13T14:33:38;4.10;;;0.90;;
64075;SDS011;50327;51.328;12.324;2023-07-13T14:36:07;3.58;;;0.75;;
64075;SDS011;50327;51.328;12.324;2023-07-13T14:39:09;3.33;;;1.00;;
64075;SDS011;50327;51.328;12.324;2023-07-13T14:41:37;2.70;;;0.80;;
64075;SDS011;50327;51.328;12.324;2023-07-13T14:44:08;3.00;;;1.00;;
64075;SDS011;50327;51.328;12.324;2023-07-13T14:46:36;5.32;;;1.00;;
64075;SDS011;50327;51.328;12.324;2023-07-13T14:49:06;4.35;;;0.75;;
64075;SDS011;50327;51.328;12.324;2023-07-13T14:54:05;4.22;;;1.00;;
64075;SDS011;50327;51.328;12.324;2023-07-13T14:56:33;4.45;;;1.10;;
64075;SDS011;50327;51.328;12.324;2023-07-13T14:58:59;5.43;;;1.20;;
64075;SDS011;50327;51.328;12.324;2023-07-13T15:01:25;3.95;;;0.93;;
64075;SDS011;50327;51.328;12.324;2023-07-13T15:03:51;8.65;;;2.88;;
64075;SDS011;50327;51.328;12.324;2023-07-13T15:06:17;3.20;;;0.80;;
64075;SDS011;50327;51.328;12.324;2023-07-13T15:08:44;3.85;;;0.90;;
64075;SDS011;50327;51.328;12.324;2023-07-13T15:11:09;7.05;;;1.05;;
64075;SDS011;50327;51.328;12.324;2023-07-13T15:13:36;6.32;;;1.00;;
64075;SDS011;50327;51.328;12.324;2023-07-13T15:16:04;6.00;;;1.30;;
64075;SDS011;50327;51.328;12.324;2023-07-13T15:18:30;2.97;;;1.00;;
64075;SDS011;50327;51.328;12.324;2023-07-13T15:20:55;6.43;;;1.15;;
64075;SDS011;50327;51.328;12.324;2023-07-13T15:23:22;2.08;;;0.95;;
64075;SDS011;50327;51.328;12.324;2023-07-13T15:25:48;6.25;;;1.08;;
64075;SDS011;50327;51.328;12.324;2023-07-13T15:28:14;3.03;;;0.95;;
64075;SDS011;50327;51.328;12.324;2023-07-13T15:30:41;5.68;;;1.00;;
64075;SDS011;50327;51.328;12.324;2023-07-13T15:33:17;7.47;;;0.85;;
64075;SDS011;50327;51.328;12.324;2023-07-13T15:35:49;4.32;;;0.90;;